createdAt,value
2023-05-16T00:00:40.636Z,10.60
2023-05-16T00:03:12.442Z,10.60
2023-05-16T00:05:41.509Z,10.60
2023-05-16T00:08:08.575Z,10.60
2023-05-16T00:10:35.818Z,10.60
2023-05-16T00:13:04.069Z,10.60
2023-05-16T00:15:31.164Z,10.50
2023-05-16T00:18:01.570Z,10.50
2023-05-16T00:20:30.774Z,10.60
2023-05-16T00:23:01.453Z,10.60
2023-05-16T00:25:28.973Z,10.60
2023-05-16T00:27:57.246Z,10.60
2023-05-16T00:30:31.548Z,10.50
2023-05-16T00:33:02.619Z,10.50
2023-05-16T00:35:29.588Z,10.60
2023-05-16T00:37:59.638Z,10.50
2023-05-16T00:40:28.004Z,10.50
2023-05-16T00:42:55.204Z,10.50
2023-05-16T00:45:22.504Z,10.50
2023-05-16T00:47:49.923Z,10.60
2023-05-16T00:50:19.274Z,10.60
2023-05-16T00:52:48.512Z,10.60
2023-05-16T00:55:16.129Z,10.50
2023-05-16T00:57:46.923Z,10.50
2023-05-16T01:00:17.878Z,10.50
2023-05-16T01:02:46.646Z,10.50
2023-05-16T01:05:14.910Z,10.50
2023-05-16T01:07:45.112Z,10.50
2023-05-16T01:10:16.154Z,10.50
2023-05-16T01:13:13.599Z,10.50
2023-05-16T01:15:59.994Z,10.50
2023-05-16T01:18:52.275Z,10.50
2023-05-16T01:21:48.529Z,10.50
2023-05-16T01:24:27.567Z,10.50
2023-05-16T01:27:00.276Z,10.40
2023-05-16T01:29:30.291Z,10.40
2023-05-16T01:32:00.672Z,10.40
2023-05-16T01:34:30.729Z,10.40
2023-05-16T01:37:30.657Z,10.40
2023-05-16T01:40:08.090Z,10.40
2023-05-16T01:42:39.738Z,10.30
2023-05-16T01:45:17.717Z,10.40
2023-05-16T01:47:52.628Z,10.40
2023-05-16T01:50:26.094Z,10.40
2023-05-16T01:52:59.406Z,10.40
2023-05-16T01:55:45.998Z,10.40
2023-05-16T01:58:21.413Z,10.40
2023-05-16T02:00:53.228Z,10.30
2023-05-16T02:03:26.607Z,10.40
2023-05-16T02:05:53.613Z,10.40
2023-05-16T02:08:21.816Z,10.40
2023-05-16T02:10:52.357Z,10.40
2023-05-16T02:13:22.535Z,10.40
2023-05-16T02:15:50.831Z,10.40
2023-05-16T02:18:19.927Z,10.40
2023-05-16T02:20:50.814Z,10.40
2023-05-16T02:23:17.967Z,10.40
2023-05-16T02:25:45.013Z,10.40
2023-05-16T02:28:15.038Z,10.40
2023-05-16T02:30:44.032Z,10.40
2023-05-16T02:33:14.103Z,10.40
2023-05-16T02:35:41.242Z,10.40
2023-05-16T02:38:08.233Z,10.40
2023-05-16T02:40:38.385Z,10.40
2023-05-16T02:43:11.324Z,10.40
2023-05-16T02:45:41.461Z,10.40
2023-05-16T02:48:10.608Z,10.30
2023-05-16T02:50:40.806Z,10.30
2023-05-16T02:53:07.856Z,10.30
2023-05-16T02:55:38.114Z,10.30
2023-05-16T02:58:06.375Z,10.30
2023-05-16T03:00:39.348Z,10.30
2023-05-16T03:03:09.522Z,10.30
2023-05-16T03:05:40.036Z,10.30
2023-05-16T03:08:09.049Z,10.30
2023-05-16T03:10:37.022Z,10.30
2023-05-16T03:13:06.033Z,10.30
2023-05-16T03:15:36.079Z,10.30
2023-05-16T03:18:04.279Z,10.30
2023-05-16T03:20:32.372Z,10.20
2023-05-16T03:23:02.467Z,10.20
2023-05-16T03:25:31.818Z,10.20
2023-05-16T03:28:01.671Z,10.20
2023-05-16T03:30:31.684Z,10.20
2023-05-16T03:32:59.720Z,10.20
2023-05-16T03:35:28.085Z,10.20
2023-05-16T03:37:58.388Z,10.20
2023-05-16T03:40:26.424Z,10.20
2023-05-16T03:42:56.511Z,10.20
2023-05-16T03:45:24.629Z,10.20
2023-05-16T03:47:53.990Z,10.20
2023-05-16T03:50:21.012Z,10.20
2023-05-16T03:52:48.141Z,10.20
2023-05-16T03:55:18.265Z,10.20
2023-05-16T03:57:45.657Z,10.30
2023-05-16T04:00:13.100Z,10.20
2023-05-16T04:02:41.391Z,10.20
2023-05-16T04:05:14.745Z,10.20
2023-05-16T04:07:42.919Z,10.20
2023-05-16T04:10:11.287Z,10.20
2023-05-16T04:12:38.290Z,10.20
2023-05-16T04:15:06.973Z,10.20
2023-05-16T04:17:34.677Z,10.20
2023-05-16T04:20:05.162Z,10.20
2023-05-16T04:22:33.146Z,10.20
2023-05-16T04:25:00.230Z,10.20
2023-05-16T04:27:27.234Z,10.20
2023-05-16T04:29:54.339Z,10.20
2023-05-16T04:32:24.162Z,10.20
2023-05-16T04:34:53.698Z,10.20
2023-05-16T04:37:23.890Z,10.20
2023-05-16T04:39:54.517Z,10.20
2023-05-16T04:42:22.531Z,10.30
2023-05-16T04:44:52.820Z,10.30
2023-05-16T04:47:26.022Z,10.30
2023-05-16T04:49:55.020Z,10.40
2023-05-16T04:52:22.036Z,10.50
2023-05-16T04:54:52.587Z,10.50
2023-05-16T04:57:19.650Z,10.50
2023-05-16T04:59:46.690Z,10.50
2023-05-16T05:02:13.795Z,10.60
2023-05-16T05:04:40.926Z,10.60
2023-05-16T05:07:11.032Z,10.60
2023-05-16T05:09:42.716Z,10.60
2023-05-16T05:12:15.812Z,10.70
2023-05-16T05:14:45.925Z,10.70
2023-05-16T05:17:16.891Z,10.70
2023-05-16T05:19:48.409Z,10.80
2023-05-16T05:22:18.595Z,10.80
2023-05-16T05:24:46.661Z,10.80
2023-05-16T05:27:14.625Z,10.80
2023-05-16T05:29:41.859Z,10.90
2023-05-16T05:32:10.077Z,10.90
2023-05-16T05:34:39.311Z,10.90
2023-05-16T05:37:06.232Z,10.90
2023-05-16T05:39:34.221Z,10.90
2023-05-16T05:42:04.506Z,10.90
2023-05-16T05:44:32.047Z,11.00
2023-05-16T05:47:02.589Z,11.00
2023-05-16T05:49:33.585Z,11.10
2023-05-16T05:52:04.024Z,11.10
2023-05-16T05:54:34.047Z,11.20
2023-05-16T05:57:03.356Z,11.20
2023-05-16T05:59:33.852Z,11.30
2023-05-16T06:02:00.950Z,11.40
2023-05-16T06:04:29.358Z,11.50
2023-05-16T06:06:58.416Z,11.50
2023-05-16T06:09:25.515Z,11.60
2023-05-16T06:11:54.606Z,11.60
2023-05-16T06:14:22.636Z,11.70
2023-05-16T06:16:53.052Z,11.70
2023-05-16T06:19:23.342Z,11.70
2023-05-16T06:21:52.736Z,11.70
2023-05-16T06:24:20.855Z,11.80
2023-05-16T06:26:50.252Z,11.80
2023-05-16T06:29:18.445Z,11.80
2023-05-16T06:31:48.632Z,11.80
2023-05-16T06:34:16.709Z,11.80
2023-05-16T06:36:44.573Z,11.80
2023-05-16T06:39:12.110Z,11.90
2023-05-16T06:41:45.753Z,12.10
2023-05-16T06:44:12.841Z,12.20
2023-05-16T06:46:39.997Z,12.30
2023-05-16T06:49:13.272Z,12.40
2023-05-16T06:51:42.406Z,12.40
2023-05-16T06:54:10.913Z,12.40
2023-05-16T06:56:38.959Z,12.40
2023-05-16T06:59:12.074Z,12.50
2023-05-16T07:01:42.592Z,12.60
2023-05-16T07:04:13.183Z,12.70
2023-05-16T07:06:41.729Z,12.80
2023-05-16T07:09:09.839Z,12.90
2023-05-16T07:11:37.528Z,12.90
2023-05-16T07:14:07.628Z,13.00
2023-05-16T07:16:41.267Z,13.10
2023-05-16T07:19:10.629Z,13.20
2023-05-16T07:21:40.886Z,13.30
2023-05-16T07:24:09.922Z,13.40
2023-05-16T07:26:38.007Z,13.50
2023-05-16T07:29:08.339Z,13.60
2023-05-16T07:31:38.627Z,13.60
2023-05-16T07:34:07.271Z,13.70
2023-05-16T07:36:35.231Z,13.70
2023-05-16T07:39:02.410Z,13.70
2023-05-16T07:41:30.948Z,13.80
2023-05-16T07:43:58.024Z,13.90
2023-05-16T07:46:28.577Z,14.00
2023-05-16T07:48:56.618Z,14.20
2023-05-16T07:51:23.633Z,14.40
2023-05-16T07:53:52.743Z,14.60
2023-05-16T07:56:22.066Z,14.70
2023-05-16T07:58:50.614Z,14.90
2023-05-16T08:01:20.894Z,14.90
2023-05-16T08:03:48.007Z,15.00
2023-05-16T08:06:15.900Z,15.10
2023-05-16T08:08:43.108Z,15.20
2023-05-16T08:11:13.413Z,15.40
2023-05-16T08:13:42.907Z,15.70
2023-05-16T08:16:12.635Z,15.90
2023-05-16T08:18:42.690Z,16.20
2023-05-16T08:21:10.829Z,16.30
2023-05-16T08:23:41.119Z,16.50
2023-05-16T08:26:08.205Z,16.60
2023-05-16T08:28:36.324Z,16.80
2023-05-16T08:31:04.622Z,17.00
2023-05-16T08:33:31.687Z,17.10
2023-05-16T08:36:02.094Z,17.20
2023-05-16T08:38:29.229Z,17.50
2023-05-16T08:40:58.465Z,17.70
2023-05-16T08:43:29.854Z,17.90
2023-05-16T08:45:59.791Z,18.20
2023-05-16T08:48:29.197Z,18.40
2023-05-16T08:51:03.568Z,18.50
2023-05-16T08:53:45.343Z,18.30
2023-05-16T08:56:17.398Z,18.30
2023-05-16T08:58:47.576Z,18.20
2023-05-16T09:01:18.758Z,18.30
2023-05-16T09:03:50.171Z,18.50
2023-05-16T09:06:18.935Z,18.80
2023-05-16T09:08:47.003Z,19.10
2023-05-16T09:11:17.141Z,19.30
2023-05-16T09:13:44.955Z,19.50
2023-05-16T09:16:22.474Z,19.70
2023-05-16T09:18:57.979Z,19.90
2023-05-16T09:21:34.405Z,19.90
2023-05-16T09:24:09.019Z,19.90
2023-05-16T09:26:38.578Z,20.10
2023-05-16T09:29:16.537Z,20.20
2023-05-16T09:31:45.692Z,20.20
2023-05-16T09:34:15.854Z,20.40
2023-05-16T09:36:44.111Z,20.50
2023-05-16T09:39:15.964Z,20.60
2023-05-16T09:41:46.182Z,20.70
2023-05-16T09:44:18.207Z,20.70
2023-05-16T09:46:46.390Z,20.70
2023-05-16T09:49:14.722Z,20.90
2023-05-16T09:51:42.259Z,21.00
2023-05-16T09:54:10.053Z,21.00
2023-05-16T09:57:02.765Z,21.00
2023-05-16T09:59:39.445Z,21.10
2023-05-16T10:02:08.167Z,21.10
2023-05-16T10:04:38.558Z,21.30
2023-05-16T10:07:06.984Z,21.40
2023-05-16T10:09:39.644Z,21.50
2023-05-16T10:12:09.117Z,21.50
2023-05-16T10:14:42.476Z,21.50
2023-05-16T10:17:14.630Z,21.60
2023-05-16T10:19:42.259Z,21.70
2023-05-16T10:22:13.333Z,21.70
2023-05-16T10:25:05.367Z,21.80
2023-05-16T10:27:34.276Z,21.90
2023-05-16T10:30:05.831Z,22.10
2023-05-16T10:32:34.373Z,22.20
2023-05-16T10:35:05.373Z,22.30
2023-05-16T10:37:34.973Z,22.50
2023-05-16T10:40:06.018Z,22.50
2023-05-16T10:42:33.937Z,22.50
2023-05-16T10:45:21.060Z,22.50
2023-05-16T10:47:56.651Z,22.50
2023-05-16T10:50:34.730Z,22.60
2023-05-16T10:53:19.779Z,22.70
2023-05-16T10:56:00.983Z,22.80
2023-05-16T10:58:40.009Z,22.80
2023-05-16T11:01:32.104Z,22.80
2023-05-16T11:04:03.451Z,22.80
2023-05-16T11:06:42.704Z,22.90
2023-05-16T11:09:15.591Z,23.00
2023-05-16T11:12:04.154Z,23.00
2023-05-16T11:14:42.588Z,23.10
2023-05-16T11:17:21.423Z,23.20
2023-05-16T11:20:00.107Z,23.20
2023-05-16T11:22:29.632Z,23.20
2023-05-16T11:24:59.406Z,23.20
2023-05-16T11:27:31.110Z,23.30
2023-05-16T11:30:07.392Z,23.40
2023-05-16T11:32:39.858Z,23.40
2023-05-16T11:35:15.426Z,23.30
2023-05-16T11:37:43.527Z,23.30
2023-05-16T11:40:12.843Z,23.30
2023-05-16T11:42:50.769Z,23.20
2023-05-16T11:45:25.384Z,22.80
2023-05-16T11:47:55.084Z,22.70
2023-05-16T11:50:24.310Z,22.70
2023-05-16T11:52:56.368Z,22.70
2023-05-16T11:55:40.313Z,22.80
2023-05-16T11:58:12.432Z,22.80
2023-05-16T12:00:51.800Z,22.90
2023-05-16T12:03:24.160Z,22.90
2023-05-16T12:05:55.025Z,23.00
2023-05-16T12:08:22.739Z,22.80
2023-05-16T12:10:53.986Z,22.80
2023-05-16T12:13:24.300Z,22.80
2023-05-16T12:15:53.903Z,22.80
2023-05-16T12:18:23.274Z,22.90
2023-05-16T12:20:51.234Z,22.90
2023-05-16T12:23:18.294Z,23.00
2023-05-16T12:25:49.466Z,22.90
2023-05-16T12:28:18.538Z,22.80
2023-05-16T12:30:48.716Z,22.80
2023-05-16T12:33:18.841Z,22.80
2023-05-16T12:35:47.430Z,22.80
2023-05-16T12:38:16.148Z,22.90
2023-05-16T12:40:44.445Z,22.80
2023-05-16T12:43:21.627Z,22.70
2023-05-16T12:45:58.659Z,22.70
2023-05-16T12:48:34.870Z,22.60
2023-05-16T12:51:14.743Z,22.50
2023-05-16T12:54:05.711Z,22.40
2023-05-16T12:56:40.254Z,22.30
2023-05-16T12:59:12.285Z,22.20
2023-05-16T13:01:40.893Z,22.10
2023-05-16T13:04:09.228Z,21.90
2023-05-16T13:06:56.517Z,21.90
2023-05-16T13:09:25.227Z,22.00
2023-05-16T13:11:52.625Z,21.90
2023-05-16T13:14:20.664Z,22.00
2023-05-16T13:16:47.755Z,22.00
2023-05-16T13:19:14.907Z,21.90
2023-05-16T13:21:43.083Z,21.80
2023-05-16T13:24:10.169Z,21.80
2023-05-16T13:26:37.551Z,21.80
2023-05-16T13:29:04.645Z,21.70
2023-05-16T13:31:34.853Z,21.70
2023-05-16T13:34:04.978Z,21.70
2023-05-16T13:36:41.634Z,21.60
2023-05-16T13:39:16.894Z,21.50
2023-05-16T13:41:47.312Z,21.50
2023-05-16T13:44:17.017Z,21.40
2023-05-16T13:46:46.066Z,21.30
2023-05-16T13:49:13.146Z,21.30
2023-05-16T13:51:43.699Z,21.20
2023-05-16T13:54:11.860Z,21.20
2023-05-16T13:56:42.115Z,21.10
2023-05-16T13:59:15.074Z,21.00
2023-05-16T14:01:45.490Z,21.10
2023-05-16T14:04:14.788Z,21.10
2023-05-16T14:06:42.849Z,21.20
2023-05-16T14:09:12.955Z,21.20
2023-05-16T14:11:43.109Z,21.20
2023-05-16T14:14:11.142Z,21.20
2023-05-16T14:16:38.394Z,21.20
2023-05-16T14:19:09.617Z,21.10
2023-05-16T14:21:36.745Z,21.10
2023-05-16T14:24:05.016Z,21.10
2023-05-16T14:26:34.139Z,21.00
2023-05-16T14:29:01.183Z,21.00
2023-05-16T14:31:30.036Z,21.00
2023-05-16T14:33:59.106Z,21.00
2023-05-16T14:36:28.186Z,20.90
2023-05-16T14:38:55.394Z,20.90
2023-05-16T14:41:22.787Z,20.80
2023-05-16T14:43:49.831Z,20.80
2023-05-16T14:46:18.626Z,20.70
2023-05-16T14:48:49.163Z,20.60
2023-05-16T14:51:17.336Z,20.50
2023-05-16T14:53:46.963Z,20.50
2023-05-16T14:56:14.522Z,20.40
2023-05-16T14:58:41.588Z,20.50
2023-05-16T15:01:09.892Z,20.50
2023-05-16T15:03:53.632Z,20.40
2023-05-16T15:06:26.042Z,20.40
2023-05-16T15:08:53.659Z,20.40
2023-05-16T15:11:21.910Z,20.30
2023-05-16T15:13:50.111Z,20.30
2023-05-16T15:16:18.388Z,20.20
2023-05-16T15:18:48.661Z,20.30
2023-05-16T15:21:18.992Z,20.30
2023-05-16T15:23:50.054Z,20.20
2023-05-16T15:26:18.886Z,20.20
2023-05-16T15:28:49.034Z,20.20
2023-05-16T15:31:19.215Z,20.00
2023-05-16T15:33:48.638Z,19.90
2023-05-16T15:36:15.853Z,19.90
2023-05-16T15:38:45.625Z,19.90
2023-05-16T15:41:26.999Z,19.90
2023-05-16T15:44:00.202Z,19.90
2023-05-16T15:46:27.550Z,19.80
2023-05-16T15:48:56.685Z,19.80
2023-05-16T15:51:26.800Z,19.60
2023-05-16T15:53:54.866Z,19.50
2023-05-16T15:56:24.982Z,19.30
2023-05-16T15:58:55.366Z,19.00
2023-05-16T16:01:25.598Z,18.90
2023-05-16T16:03:52.836Z,18.80
2023-05-16T16:06:21.182Z,18.80
2023-05-16T16:08:50.856Z,18.70
2023-05-16T16:11:25.094Z,18.60
2023-05-16T16:13:53.210Z,18.50
2023-05-16T16:16:21.256Z,18.50
2023-05-16T16:18:48.507Z,18.30
2023-05-16T16:21:18.576Z,18.10
2023-05-16T16:23:46.729Z,17.80
2023-05-16T16:26:15.825Z,17.70
2023-05-16T16:28:46.110Z,17.50
2023-05-16T16:31:16.599Z,17.40
2023-05-16T16:33:49.189Z,17.20
2023-05-16T16:36:17.681Z,17.10
2023-05-16T16:38:45.832Z,17.10
2023-05-16T16:41:16.637Z,17.00
2023-05-16T16:43:46.791Z,17.00
2023-05-16T16:46:17.378Z,16.90
2023-05-16T16:48:46.480Z,16.80
2023-05-16T16:51:19.530Z,16.80
2023-05-16T16:53:52.617Z,16.60
2023-05-16T16:56:21.783Z,16.60
2023-05-16T16:58:53.392Z,16.50
2023-05-16T17:01:23.948Z,16.40
2023-05-16T17:03:54.844Z,16.40
2023-05-16T17:06:23.403Z,16.30
2023-05-16T17:08:51.765Z,16.30
2023-05-16T17:11:23.522Z,16.20
2023-05-16T17:13:51.388Z,16.20
2023-05-16T17:16:21.524Z,16.10
2023-05-16T17:18:52.644Z,16.00
2023-05-16T17:21:22.800Z,16.00
2023-05-16T17:23:53.598Z,15.90
2023-05-16T17:26:22.878Z,15.80
2023-05-16T17:28:52.118Z,15.80
2023-05-16T17:31:22.560Z,15.80
2023-05-16T17:33:51.781Z,15.70
2023-05-16T17:36:21.873Z,15.70
2023-05-16T17:38:52.024Z,15.60
2023-05-16T17:41:20.069Z,15.60
2023-05-16T17:43:50.178Z,15.60
2023-05-16T17:46:17.273Z,15.50
2023-05-16T17:48:47.574Z,15.60
2023-05-16T17:51:17.726Z,15.60
2023-05-16T17:53:47.835Z,15.60
2023-05-16T17:56:17.996Z,15.60
2023-05-16T17:58:47.089Z,15.50
2023-05-16T18:01:17.358Z,15.50
2023-05-16T18:03:48.119Z,15.40
2023-05-16T18:06:17.418Z,15.40
2023-05-16T18:08:44.497Z,15.40
2023-05-16T18:11:17.844Z,15.40
2023-05-16T18:13:45.894Z,15.40
2023-05-16T18:16:16.024Z,15.40
2023-05-16T18:18:46.269Z,15.30
2023-05-16T18:21:15.516Z,15.30
2023-05-16T18:23:43.622Z,15.20
2023-05-16T18:26:19.456Z,15.20
2023-05-16T18:28:49.711Z,15.10
2023-05-16T18:31:20.502Z,15.10
2023-05-16T18:33:49.833Z,15.00
2023-05-16T18:36:16.988Z,14.90
2023-05-16T18:38:44.059Z,14.80
2023-05-16T18:41:11.522Z,14.80
2023-05-16T18:43:38.587Z,14.70
2023-05-16T18:46:05.822Z,14.50
2023-05-16T18:48:36.035Z,14.40
2023-05-16T18:51:06.552Z,14.40
2023-05-16T18:53:33.745Z,14.30
2023-05-16T18:56:02.824Z,14.20
2023-05-16T18:58:29.951Z,14.20
2023-05-16T19:00:57.040Z,14.00
2023-05-16T19:03:25.284Z,13.90
2023-05-16T19:05:53.767Z,13.80
2023-05-16T19:08:21.138Z,13.80
2023-05-16T19:10:54.407Z,13.70
2023-05-16T19:13:22.469Z,13.60
2023-05-16T19:15:53.568Z,13.60
2023-05-16T19:18:20.846Z,13.50
2023-05-16T19:20:50.731Z,13.40
2023-05-16T19:23:21.354Z,13.30
2023-05-16T19:25:49.226Z,13.20
2023-05-16T19:28:18.689Z,13.10
2023-05-16T19:30:45.979Z,13.10
2023-05-16T19:33:13.234Z,13.10
2023-05-16T19:35:43.013Z,13.00
2023-05-16T19:38:10.082Z,13.00
2023-05-16T19:40:40.195Z,12.90
2023-05-16T19:43:07.340Z,12.90
2023-05-16T19:45:35.388Z,12.80
2023-05-16T19:48:02.689Z,12.70
2023-05-16T19:50:30.201Z,12.60
2023-05-16T19:53:00.405Z,12.60
2023-05-16T19:55:38.306Z,12.50
2023-05-16T19:58:05.893Z,12.50
2023-05-16T20:00:33.218Z,12.40
2023-05-16T20:03:02.411Z,12.40
2023-05-16T20:05:30.125Z,12.40
2023-05-16T20:07:58.360Z,12.30
2023-05-16T20:10:26.509Z,12.30
2023-05-16T20:12:53.663Z,12.30
2023-05-16T20:15:24.036Z,12.30
2023-05-16T20:17:54.202Z,12.30
2023-05-16T20:20:30.659Z,12.30
2023-05-16T20:23:00.867Z,12.30
2023-05-16T20:25:32.137Z,12.20
2023-05-16T20:28:00.199Z,12.20
2023-05-16T20:30:28.270Z,12.20
2023-05-16T20:32:55.504Z,12.10
2023-05-16T20:35:23.692Z,12.10
2023-05-16T20:37:50.667Z,12.10
2023-05-16T20:40:21.211Z,12.10
2023-05-16T20:42:51.256Z,12.00
2023-05-16T20:45:20.678Z,12.00
2023-05-16T20:47:51.373Z,12.00
2023-05-16T20:50:19.781Z,12.00
2023-05-16T20:52:50.055Z,12.00
2023-05-16T20:55:18.134Z,11.90
2023-05-16T20:57:47.294Z,11.90
2023-05-16T21:00:24.630Z,11.90
2023-05-16T21:02:51.621Z,11.90
2023-05-16T21:05:25.056Z,11.90
2023-05-16T21:07:53.145Z,11.80
2023-05-16T21:10:20.150Z,11.90
2023-05-16T21:12:50.428Z,11.80
2023-05-16T21:15:17.405Z,11.80
2023-05-16T21:17:47.629Z,11.80
2023-05-16T21:20:17.807Z,11.80
2023-05-16T21:22:46.844Z,11.80
2023-05-16T21:25:14.383Z,11.80
2023-05-16T21:27:44.589Z,11.80
2023-05-16T21:30:17.853Z,11.70
2023-05-16T21:32:48.000Z,11.70
2023-05-16T21:35:18.168Z,11.70
2023-05-16T21:37:45.150Z,11.70
2023-05-16T21:40:24.801Z,11.70
2023-05-16T21:42:52.840Z,11.70
2023-05-16T21:45:20.102Z,11.70
2023-05-16T21:47:48.274Z,11.70
2023-05-16T21:50:15.694Z,11.70
2023-05-16T21:52:42.842Z,11.70
2023-05-16T21:55:10.130Z,11.70
2023-05-16T21:57:38.570Z,11.60
2023-05-16T22:00:09.521Z,11.70
2023-05-16T22:02:39.787Z,11.60
2023-05-16T22:05:07.420Z,11.60
2023-05-16T22:07:34.704Z,11.60
2023-05-16T22:10:05.161Z,11.60
2023-05-16T22:12:34.364Z,11.60
2023-05-16T22:15:04.941Z,11.60
2023-05-16T22:17:35.080Z,11.60
2023-05-16T22:20:05.101Z,11.60
2023-05-16T22:22:35.194Z,11.60
2023-05-16T22:25:02.491Z,11.60
2023-05-16T22:27:35.648Z,11.60
2023-05-16T22:30:06.474Z,11.60
2023-05-16T22:32:33.504Z,11.60
2023-05-16T22:35:04.587Z,11.60
2023-05-16T22:37:34.943Z,11.60
2023-05-16T22:40:07.769Z,11.60
2023-05-16T22:42:37.805Z,11.50
2023-05-16T22:45:08.298Z,11.50
2023-05-16T22:47:35.383Z,11.60
2023-05-16T22:50:04.102Z,11.60
2023-05-16T22:52:34.258Z,11.60
2023-05-16T22:55:02.005Z,11.60
2023-05-16T22:57:29.132Z,11.60
2023-05-16T22:59:56.275Z,11.60
2023-05-16T23:02:26.559Z,11.60
2023-05-16T23:04:56.734Z,11.50
2023-05-16T23:07:24.767Z,11.50
2023-05-16T23:09:56.739Z,11.60
2023-05-16T23:12:25.470Z,11.60
2023-05-16T23:14:58.601Z,11.50
2023-05-16T23:17:26.759Z,11.50
2023-05-16T23:19:53.859Z,11.50
2023-05-16T23:22:22.025Z,11.50
2023-05-16T23:24:52.338Z,11.50
2023-05-16T23:27:20.399Z,11.50
2023-05-16T23:29:51.594Z,11.50
2023-05-16T23:32:21.786Z,11.50
2023-05-16T23:34:49.021Z,11.50
2023-05-16T23:37:18.116Z,11.50
2023-05-16T23:39:48.182Z,11.50
2023-05-16T23:42:16.246Z,11.50
2023-05-16T23:44:43.350Z,11.50
2023-05-16T23:47:13.563Z,11.50
2023-05-16T23:49:40.900Z,11.50
2023-05-16T23:52:14.105Z,11.50
2023-05-16T23:54:42.208Z,11.50
2023-05-16T23:57:09.183Z,11.50
2023-05-16T23:59:36.278Z,11.50
